Time;durP1;ratioP1;P1;durP2;ratioP2;P2;SDS_P1;SDS_P2;PMS_P1;PMS_P2;Temp;Humidity;BMP_temperature;BMP_pressure;BME280_temperature;BME280_humidity;BME280_pressure;Samples;Min_cycle;Max_cycle;Signal;HPM_P1;HPM_P2
2023/09/29 00:01:50;;;;;;;24.98;5.45;;;;;;;;;;4979877;28;20077;-79
2023/09/29 00:04:15;;;;;;;18.95;5.65;;;19.90;99.90;;;;;;4980173;28;20069;-79
2023/09/29 00:06:41;;;;;;;19.73;5.80;;;20.00;99.90;;;;;;4980562;28;20034;-79
2023/09/29 00:09:06;;;;;;;20.20;5.45;;;20.20;99.90;;;;;;4979688;28;20050;-79
2023/09/29 00:11:33;;;;;;;18.15;6.57;;;20.10;99.90;;;;;;4997170;28;20045;-79
2023/09/29 00:13:59;;;;;;;18.10;4.97;;;20.30;99.90;;;;;;4979132;28;20049;-79
2023/09/29 00:16:25;;;;;;;20.33;6.32;;;20.40;99.90;;;;;;4979284;28;20038;-79
2023/09/29 00:18:50;;;;;;;16.63;4.80;;;20.00;99.90;;;;;;4979326;28;20069;-79
2023/09/29 00:21:16;;;;;;;17.88;5.20;;;20.40;99.90;;;;;;4979377;28;20490;-79
2023/09/29 00:23:41;;;;;;;14.45;5.20;;;20.30;99.90;;;;;;4979413;28;20038;-79
2023/09/29 00:26:07;;;;;;;19.90;5.05;;;20.30;99.90;;;;;;4978940;28;20121;-79
2023/09/29 00:28:33;;;;;;;18.80;4.40;;;20.10;99.90;;;;;;4979430;28;20441;-79
2023/09/29 00:30:59;;;;;;;15.50;4.70;;;20.20;99.90;;;;;;4980140;28;20042;-79
2023/09/29 00:33:25;;;;;;;16.00;5.00;;;20.30;99.90;;;;;;4978982;28;20045;-78
2023/09/29 00:35:51;;;;;;;14.45;4.13;;;20.00;99.90;;;;;;4979359;28;20038;-79
2023/09/29 00:38:16;;;;;;;14.18;4.30;;;20.30;99.90;;;;;;4978834;28;20178;-79
2023/09/29 00:40:42;;;;;;;20.75;5.40;;;20.30;99.90;;;;;;4979421;28;20045;-79
2023/09/29 00:43:08;;;;;;;20.48;5.15;;;20.10;99.90;;;;;;4979082;28;20031;-79
2023/09/29 00:45:35;;;;;;;17.95;4.07;;;20.30;99.90;;;;;;4962694;28;20031;-77
2023/09/29 00:48:07;;;;;;;20.33;5.25;;;20.00;99.90;;;;;;4976410;28;20046;-76
2023/09/29 00:50:34;;;;;;;13.63;4.70;;;20.20;99.90;;;;;;4976486;28;20053;-77
2023/09/29 00:53:07;;;;;;;17.13;5.28;;;20.10;99.90;;;;;;4977907;28;20042;-77
2023/09/29 00:55:35;;;;;;;16.38;4.43;;;20.10;99.90;;;;;;4960680;28;20048;-77
2023/09/29 00:58:03;;;;;;;11.23;3.78;;;20.20;99.90;;;;;;4960729;28;20034;-77
2023/09/29 01:00:31;;;;;;;14.07;4.55;;;20.10;99.90;;;;;;4976647;28;20509;-77
2023/09/29 01:02:58;;;;;;;19.88;4.18;;;20.20;99.90;;;;;;4979842;28;20038;-77
2023/09/29 01:05:24;;;;;;;23.02;4.53;;;20.20;99.90;;;;;;4977290;28;20200;-77
2023/09/29 01:07:51;;;;;;;18.00;4.50;;;20.20;99.90;;;;;;4977350;28;20089;-78
2023/09/29 01:10:17;;;;;;;13.35;4.78;;;20.30;99.90;;;;;;4976849;28;20068;-77
2023/09/29 01:12:44;;;;;;;16.83;4.25;;;20.30;99.90;;;;;;4976411;28;20053;-76
2023/09/29 01:15:13;;;;;;;12.43;3.50;;;20.10;99.90;;;;;;4975626;28;20084;-77
2023/09/29 01:17:43;;;;;;;19.00;4.10;;;19.90;99.90;;;;;;4959548;28;20078;-77
2023/09/29 01:20:15;;;;;;;15.43;4.47;;;20.10;99.90;;;;;;4975620;28;20038;-77
2023/09/29 01:22:48;;;;;;;19.07;4.67;;;20.00;99.90;;;;;;4959778;28;20038;-77
2023/09/29 01:25:15;;;;;;;15.48;4.63;;;20.20;99.90;;;;;;4975667;28;20273;-77
2023/09/29 01:27:41;;;;;;;17.88;4.53;;;20.10;99.90;;;;;;4975570;28;20050;-77
2023/09/29 01:30:07;;;;;;;17.45;4.35;;;20.30;99.90;;;;;;4975358;28;20513;-77
2023/09/29 01:32:33;;;;;;;16.95;5.20;;;20.30;99.90;;;;;;4975858;28;20418;-76
2023/09/29 01:35:00;;;;;;;16.58;4.50;;;20.40;99.90;;;;;;4975548;28;20046;-77
2023/09/29 01:37:25;;;;;;;17.88;4.95;;;20.20;99.90;;;;;;4959283;28;20038;-76
2023/09/29 01:39:51;;;;;;;15.35;4.43;;;20.20;99.90;;;;;;4959184;28;20034;-77
2023/09/29 01:42:17;;;;;;;20.58;5.55;;;20.30;99.90;;;;;;4975198;28;20038;-77
2023/09/29 01:44:43;;;;;;;14.13;4.80;;;20.40;99.90;;;;;;4974804;28;20070;-77
2023/09/29 01:47:09;;;;;;;20.73;5.40;;;20.20;99.90;;;;;;4959516;28;20077;-77
2023/09/29 01:49:34;;;;;;;10.48;4.20;;;20.20;99.90;;;;;;4975058;28;20038;-76
2023/09/29 01:52:00;;;;;;;12.68;4.35;;;20.40;99.90;;;;;;4959251;28;20129;-77
2023/09/29 01:54:25;;;;;;;16.02;4.30;;;20.40;99.90;;;;;;4974787;28;20505;-77
2023/09/29 01:56:51;;;;;;;19.67;5.57;;;20.40;99.90;;;;;;4975173;28;20064;-77
2023/09/29 01:59:16;;;;;;;13.23;3.90;;;20.20;99.90;;;;;;4974859;28;20041;-77
2023/09/29 02:01:42;;;;;;;18.42;4.47;;;20.30;99.90;;;;;;4958796;28;20494;-77
2023/09/29 02:04:07;;;;;;;13.50;4.53;;;20.20;99.90;;;;;;4974925;28;20049;-76
2023/09/29 02:06:33;;;;;;;23.52;4.93;;;20.40;99.90;;;;;;4975307;28;20406;-77
2023/09/29 02:08:59;;;;;;;19.58;4.43;;;20.30;99.90;;;;;;4974742;28;20046;-77
2023/09/29 02:11:24;;;;;;;16.52;4.63;;;20.50;99.90;;;;;;4975000;28;20042;-76
2023/09/29 02:13:50;;;;;;;12.65;4.30;;;20.30;99.90;;;;;;4974829;28;20034;-76
2023/09/29 02:16:15;;;;;;;13.73;4.57;;;20.10;99.90;;;;;;4958956;28;20531;-77
2023/09/29 02:18:41;;;;;;;15.45;4.50;;;20.20;99.90;;;;;;4974887;28;20042;-77
2023/09/29 02:21:07;;;;;;;12.57;4.55;;;20.40;99.90;;;;;;4974695;28;20121;-77
2023/09/29 02:23:33;;;;;;;14.77;4.00;;;20.20;99.90;;;;;;4974760;28;20042;-77
2023/09/29 02:26:00;;;;;;;24.00;5.95;;;20.30;99.90;;;;;;4974851;28;20128;-77
2023/09/29 02:28:30;;;;;;;14.73;4.07;;;20.20;99.90;;;;;;4974941;28;20042;-77
2023/09/29 02:30:57;;;;;;;18.63;4.70;;;20.50;99.90;;;;;;4958737;28;20049;-77
2023/09/29 02:33:24;;;;;;;19.02;4.13;;;20.40;99.90;;;;;;4974887;28;20049;-77
2023/09/29 02:35:50;;;;;;;14.23;3.75;;;20.30;99.90;;;;;;4974648;28;20050;-77
2023/09/29 02:38:16;;;;;;;13.15;3.60;;;20.40;99.90;;;;;;4974827;28;20481;-77
2023/09/29 02:40:42;;;;;;;15.45;4.78;;;20.50;99.90;;;;;;4974651;28;20152;-77
2023/09/29 02:43:09;;;;;;;16.23;4.43;;;20.20;99.90;;;;;;4974572;28;20417;-76
2023/09/29 02:45:35;;;;;;;13.10;3.67;;;20.20;99.90;;;;;;4975013;28;20262;-77
2023/09/29 02:48:02;;;;;;;15.98;3.85;;;20.20;99.90;;;;;;4958650;28;20038;-76
2023/09/29 02:50:27;;;;;;;16.85;4.68;;;20.30;99.90;;;;;;4974912;28;20443;-76
2023/09/29 02:52:53;;;;;;;17.17;4.72;;;;;;;;;;4981389;28;20070;-77
2023/09/29 02:55:19;;;;;;;11.30;3.67;;;20.20;99.90;;;;;;4985501;28;20137;-76
2023/09/29 02:57:45;;;;;;;11.23;3.92;;;20.00;99.90;;;;;;4981529;28;20077;-77
2023/09/29 03:00:15;;;;;;;10.60;3.63;;;20.10;99.90;;;;;;4975172;28;20034;-78
2023/09/29 03:02:41;;;;;;;14.13;3.50;;;20.00;99.90;;;;;;4975395;28;20042;-77
2023/09/29 03:05:09;;;;;;;14.48;4.25;;;20.00;99.90;;;;;;4974879;28;20049;-77
2023/09/29 03:07:35;;;;;;;13.02;3.85;;;20.10;99.90;;;;;;4977373;28;20038;-76
2023/09/29 03:10:00;;;;;;;14.30;4.18;;;20.40;99.90;;;;;;4977854;28;20052;-76
2023/09/29 03:12:26;;;;;;;15.02;4.03;;;20.10;99.90;;;;;;4977907;28;20125;-76
2023/09/29 03:14:52;;;;;;;21.33;4.00;;;20.30;99.90;;;;;;4977969;28;20050;-77
2023/09/29 03:17:18;;;;;;;17.25;4.65;;;20.30;99.90;;;;;;4977890;28;20041;-77
2023/09/29 03:19:43;;;;;;;16.40;4.97;;;20.40;99.90;;;;;;4978004;28;20797;-78
2023/09/29 03:22:13;;;;;;;18.80;4.55;;;;;;;;;;5003094;22;20042;-68
2023/09/29 03:24:39;;;;;;;16.00;3.55;;;20.30;99.90;;;;;;5031980;28;20489;-72
2023/09/29 03:27:05;;;;;;;12.50;4.40;;;;;;;;;;5033459;28;20064;-71
2023/09/29 03:29:30;;;;;;;17.35;3.55;;;20.30;99.90;;;;;;5050071;28;20075;-71
2023/09/29 03:31:56;;;;;;;12.80;3.55;;;20.40;99.90;;;;;;5033422;28;20038;-70
2023/09/29 03:34:23;;;;;;;11.80;3.83;;;20.50;99.90;;;;;;5033181;28;20048;-71
2023/09/29 03:36:52;;;;;;;13.20;4.07;;;20.70;99.90;;;;;;5033267;28;20509;-71
2023/09/29 03:39:18;;;;;;;13.25;3.53;;;20.30;99.90;;;;;;5032901;28;20147;-71
2023/09/29 03:41:44;;;;;;;13.95;3.20;;;20.60;99.90;;;;;;5049793;28;20076;-70
2023/09/29 03:44:12;;;;;;;11.65;3.65;;;20.50;99.90;;;;;;5016562;28;20128;-70
2023/09/29 03:46:38;;;;;;;16.25;3.55;;;20.60;99.90;;;;;;5034161;28;20041;-71
2023/09/29 03:49:04;;;;;;;30.17;5.30;;;20.50;99.90;;;;;;5034186;28;20045;-71
2023/09/29 03:51:30;;;;;;;11.07;4.00;;;20.60;99.90;;;;;;5049601;28;20048;-71
2023/09/29 03:53:57;;;;;;;13.80;3.92;;;20.50;99.90;;;;;;5032873;28;20586;-71
2023/09/29 03:56:23;;;;;;;18.73;4.35;;;20.30;99.90;;;;;;5034165;28;20091;-71
2023/09/29 03:58:50;;;;;;;14.40;3.95;;;20.40;99.90;;;;;;5032615;28;20058;-69
2023/09/29 04:01:16;;;;;;;13.23;4.18;;;20.50;99.90;;;;;;5032903;28;20087;-71
2023/09/29 04:03:42;;;;;;;12.48;3.67;;;20.60;99.90;;;;;;5048913;28;20037;-71
2023/09/29 04:06:09;;;;;;;19.88;4.22;;;20.70;99.90;;;;;;5032690;28;20044;-71
2023/09/29 04:08:35;;;;;;;13.63;4.03;;;20.50;99.90;;;;;;5032710;28;20522;-71
2023/09/29 04:11:01;;;;;;;16.45;4.57;;;20.70;99.90;;;;;;5015669;28;20037;-71
2023/09/29 04:13:27;;;;;;;16.35;5.22;;;;;;;;;;5032603;28;20041;-73
2023/09/29 04:15:52;;;;;;;12.18;3.70;;;20.80;99.90;;;;;;5032571;28;20050;-70
2023/09/29 04:18:18;;;;;;;12.55;4.05;;;20.90;99.90;;;;;;5031373;28;20042;-70
2023/09/29 04:20:44;;;;;;;9.95;3.67;;;20.80;99.90;;;;;;5048971;28;20037;-71
2023/09/29 04:23:09;;;;;;;11.45;4.03;;;20.80;99.90;;;;;;5033661;28;20037;-72
2023/09/29 04:25:35;;;;;;;13.30;4.07;;;;;;;;;;5032610;28;20118;-71
2023/09/29 04:28:01;;;;;;;18.98;4.57;;;;;;;;;;5033486;28;20168;-71
2023/09/29 04:30:27;;;;;;;11.98;3.50;;;20.80;99.90;;;;;;5033428;28;20472;-71
2023/09/29 04:32:53;;;;;;;11.95;4.25;;;21.00;99.90;;;;;;5033461;28;20033;-70
2023/09/29 04:35:18;;;;;;;11.40;3.72;;;21.00;99.90;;;;;;5048720;28;20045;-71
2023/09/29 04:37:45;;;;;;;15.05;3.92;;;20.90;99.90;;;;;;5048633;28;20041;-71
2023/09/29 04:40:11;;;;;;;12.68;3.63;;;20.90;99.90;;;;;;5031960;28;20033;-70
2023/09/29 04:42:37;;;;;;;17.40;4.13;;;20.70;99.90;;;;;;5032068;28;20126;-70
2023/09/29 04:45:04;;;;;;;14.68;3.83;;;20.80;99.90;;;;;;5031879;28;20034;-71
2023/09/29 04:47:30;;;;;;;18.55;4.93;;;20.80;99.90;;;;;;5048670;28;20092;-71
2023/09/29 04:49:56;;;;;;;13.68;3.83;;;20.70;99.90;;;;;;5031950;28;20435;-71
2023/09/29 04:52:22;;;;;;;16.15;3.95;;;20.80;99.90;;;;;;5031894;28;20091;-71
2023/09/29 04:54:48;;;;;;;14.98;4.30;;;20.80;99.90;;;;;;5031787;28;20034;-70
2023/09/29 04:57:13;;;;;;;15.15;4.15;;;20.90;99.90;;;;;;5031812;28;20116;-70
2023/09/29 04:59:39;;;;;;;17.30;5.28;;;21.00;99.90;;;;;;5047980;28;20136;-71
2023/09/29 05:02:05;;;;;;;13.13;3.63;;;20.90;99.90;;;;;;5031886;28;20095;-71
2023/09/29 05:04:32;;;;;;;10.73;3.50;;;20.80;99.90;;;;;;5015080;28;20087;-71
2023/09/29 05:06:57;;;;;;;17.02;4.38;;;20.60;99.90;;;;;;5048288;28;20504;-72
2023/09/29 05:09:23;;;;;;;12.80;3.88;;;20.80;99.90;;;;;;5031426;28;20053;-71
2023/09/29 05:11:49;;;;;;;17.25;5.03;;;20.60;99.90;;;;;;5031549;28;20048;-71
2023/09/29 05:14:14;;;;;;;14.25;4.32;;;20.50;99.90;;;;;;5048018;28;20037;-69
2023/09/29 05:16:40;;;;;;;14.45;3.92;;;20.90;99.90;;;;;;5047994;28;20041;-71
2023/09/29 05:19:05;;;;;;;16.75;5.32;;;20.60;99.90;;;;;;5030855;28;20427;-71
2023/09/29 05:21:32;;;;;;;14.82;4.15;;;21.10;99.90;;;;;;5030947;28;20037;-71
2023/09/29 05:23:58;;;;;;;15.07;4.88;;;20.60;99.90;;;;;;5030975;28;20577;-71
2023/09/29 05:26:23;;;;;;;14.85;4.95;;;20.80;99.90;;;;;;5030979;28;20136;-69
2023/09/29 05:28:53;;;;;;;11.55;4.38;;;20.90;99.90;;;;;;5030748;28;20041;-71
2023/09/29 05:31:19;;;;;;;16.23;4.38;;;20.80;99.90;;;;;;5047732;28;20210;-71
2023/09/29 05:33:44;;;;;;;16.88;4.10;;;20.90;99.90;;;;;;5031072;28;20165;-71
2023/09/29 05:36:10;;;;;;;12.52;4.05;;;20.90;99.90;;;;;;5047934;28;20124;-71
2023/09/29 05:38:36;;;;;;;14.02;4.85;;;20.50;99.90;;;;;;5047220;28;20044;-71
2023/09/29 05:41:02;;;;;;;18.50;3.95;;;20.60;99.90;;;;;;5030998;28;20041;-71
2023/09/29 05:43:27;;;;;;;14.10;4.40;;;20.90;99.90;;;;;;5031186;28;20029;-71
2023/09/29 05:45:53;;;;;;;11.25;4.13;;;20.90;99.90;;;;;;5047736;28;20042;-71
2023/09/29 05:48:18;;;;;;;8.35;4.45;;;20.40;99.90;;;;;;5030379;28;20523;-71
2023/09/29 05:50:44;;;;;;;12.48;4.57;;;;;;;;;;5030790;28;20037;-71
2023/09/29 05:53:11;;;;;;;14.38;4.47;;;20.90;99.90;;;;;;5013039;28;20041;-71
2023/09/29 05:55:38;;;;;;;20.23;5.65;;;20.30;99.90;;;;;;5021818;28;20080;-71
2023/09/29 05:58:04;;;;;;;29.55;7.38;;;20.90;99.90;;;;;;4994225;28;20513;-71
2023/09/29 06:00:30;;;;;;;17.60;5.80;;;;;;;;;;5010649;28;20040;-71
2023/09/29 06:02:55;;;;;;;9.85;3.50;;;20.60;99.90;;;;;;5010859;28;20129;-71
2023/09/29 06:05:21;;;;;;;11.98;4.32;;;21.20;99.90;;;;;;5011130;28;20546;-70
2023/09/29 06:07:47;;;;;;;11.15;4.07;;;20.90;99.90;;;;;;5010762;28;20421;-70
2023/09/29 06:10:13;;;;;;;15.95;4.28;;;20.90;99.90;;;;;;5011523;28;20038;-70
2023/09/29 06:12:39;;;;;;;8.82;4.15;;;21.00;99.90;;;;;;5013162;28;20551;-70
2023/09/29 06:15:06;;;;;;;12.18;4.95;;;20.50;99.90;;;;;;5024733;28;20508;-71
2023/09/29 06:17:32;;;;;;;16.05;4.50;;;20.90;99.90;;;;;;5026791;28;20076;-71
2023/09/29 06:19:58;;;;;;;13.02;4.35;;;20.50;99.90;;;;;;5023996;28;20033;-70
2023/09/29 06:22:26;;;;;;;11.27;3.55;;;20.60;99.90;;;;;;5023532;28;20037;-71
2023/09/29 06:24:52;;;;;;;11.93;4.63;;;20.50;99.90;;;;;;5026812;28;20029;-71
2023/09/29 06:27:17;;;;;;;14.18;5.25;;;20.70;99.90;;;;;;5026063;28;20074;-71
2023/09/29 06:29:50;;;;;;;14.40;5.40;;;21.10;99.90;;;;;;5015771;28;20501;-71
2023/09/29 06:32:19;;;;;;;11.85;4.70;;;20.40;99.90;;;;;;5020936;28;20569;-71
2023/09/29 06:34:45;;;;;;;14.13;4.40;;;20.70;99.90;;;;;;5018106;28;20794;-71
2023/09/29 06:37:11;;;;;;;13.63;5.07;;;20.90;99.90;;;;;;5023645;28;20175;-71
2023/09/29 06:39:36;;;;;;;13.15;5.15;;;21.00;99.90;;;;;;5018014;28;20045;-71
2023/09/29 06:42:03;;;;;;;13.15;5.38;;;;;;;;;;5028056;28;20048;-71
2023/09/29 06:44:30;;;;;;;13.57;4.43;;;20.80;99.90;;;;;;5029847;28;20041;-71
2023/09/29 06:46:55;;;;;;;9.48;4.75;;;;;;;;;;5030452;28;20037;-71
2023/09/29 06:49:22;;;;;;;15.85;5.32;;;20.80;99.90;;;;;;5014257;28;20588;-71
2023/09/29 06:51:48;;;;;;;11.30;4.93;;;21.20;99.90;;;;;;5030632;28;20132;-71
2023/09/29 06:54:14;;;;;;;15.82;5.07;;;21.20;99.90;;;;;;5030465;28;20057;-71
2023/09/29 06:56:40;;;;;;;11.15;4.75;;;21.30;99.90;;;;;;5030373;28;20052;-71
2023/09/29 06:59:07;;;;;;;10.32;4.28;;;20.90;99.90;;;;;;5029811;28;20046;-72
2023/09/29 07:01:33;;;;;;;14.95;4.80;;;20.90;99.90;;;;;;5030164;28;20492;-71
2023/09/29 07:03:59;;;;;;;13.75;5.05;;;20.90;99.90;;;;;;5022790;28;20046;-71
2023/09/29 07:06:25;;;;;;;10.70;4.72;;;21.40;99.90;;;;;;5027084;28;20493;-71
2023/09/29 07:08:51;;;;;;;15.77;5.13;;;21.40;99.90;;;;;;5021447;28;20429;-71
2023/09/29 07:11:17;;;;;;;16.88;4.65;;;21.10;99.90;;;;;;5021921;28;20061;-72
2023/09/29 07:13:43;;;;;;;17.25;5.32;;;21.50;99.90;;;;;;5022761;28;20704;-71
2023/09/29 07:16:10;;;;;;;15.15;5.85;;;21.30;99.90;;;;;;5029195;28;20505;-71
2023/09/29 07:18:36;;;;;;;10.98;5.00;;;;;;;;;;5037253;28;20120;-71
2023/09/29 07:21:02;;;;;;;15.82;4.80;;;;;;;;;;5035467;28;20037;-71
2023/09/29 07:23:30;;;;;;;13.80;4.70;;;21.80;99.90;;;;;;5031735;28;20045;-71
2023/09/29 07:25:55;;;;;;;12.30;4.50;;;21.40;99.90;;;;;;5027872;28;20117;-71
2023/09/29 07:28:21;;;;;;;11.02;4.65;;;;;;;;;;5013688;28;20544;-72
2023/09/29 07:30:47;;;;;;;11.77;5.03;;;21.90;99.90;;;;;;5009564;28;20045;-72
2023/09/29 07:33:13;;;;;;;8.77;4.38;;;21.80;99.90;;;;;;5025213;28;20497;-70
2023/09/29 07:35:39;;;;;;;11.52;4.80;;;21.80;99.90;;;;;;5009536;28;20049;-71
2023/09/29 07:38:06;;;;;;;6.85;4.07;;;21.70;99.90;;;;;;5014123;28;20041;-72
2023/09/29 07:40:34;;;;;;;10.80;4.40;;;21.80;99.90;;;;;;5032700;28;20038;-71
2023/09/29 07:43:01;;;;;;;8.75;4.38;;;22.20;99.90;;;;;;5030070;28;20037;-72
2023/09/29 07:45:27;;;;;;;10.25;4.95;;;21.70;99.90;;;;;;5042730;28;20030;-71
2023/09/29 07:47:53;;;;;;;10.13;4.57;;;21.80;99.90;;;;;;5038888;28;20040;-71
2023/09/29 07:50:19;;;;;;;8.57;4.00;;;22.30;99.90;;;;;;5018876;28;20109;-72
2023/09/29 07:52:45;;;;;;;10.95;4.80;;;23.20;99.90;;;;;;4997038;28;20037;-72
2023/09/29 07:55:11;;;;;;;10.57;4.75;;;22.40;99.90;;;;;;5013274;28;20049;-72
2023/09/29 07:57:37;;;;;;;13.80;4.25;;;22.60;99.90;;;;;;5013002;28;20525;-72
2023/09/29 08:00:08;;;;;;;11.38;4.18;;;22.70;99.90;;;;;;4996876;28;20095;-72
2023/09/29 08:02:34;;;;;;;10.38;4.40;;;22.20;99.90;;;;;;5013042;28;20045;-72
2023/09/29 08:05:00;;;;;;;11.73;4.45;;;22.40;99.90;;;;;;5013104;28;20041;-72
2023/09/29 08:07:27;;;;;;;11.80;4.70;;;22.60;99.90;;;;;;4996815;28;20044;-72
2023/09/29 08:09:53;;;;;;;7.85;4.40;;;22.40;99.90;;;;;;5013006;28;20409;-72
2023/09/29 08:12:19;;;;;;;10.82;4.43;;;22.40;99.90;;;;;;5013099;28;20049;-72
2023/09/29 08:14:45;;;;;;;10.32;4.53;;;22.90;99.90;;;;;;5012917;28;20049;-72
2023/09/29 08:17:11;;;;;;;11.80;4.70;;;22.50;99.90;;;;;;5012962;28;20080;-69
2023/09/29 08:19:37;;;;;;;12.73;4.88;;;23.00;99.90;;;;;;5012411;28;20512;-72
2023/09/29 08:22:02;;;;;;;13.38;5.75;;;22.70;99.90;;;;;;5017645;28;20037;-73
2023/09/29 08:24:31;;;;;;;13.07;5.60;;;22.90;99.90;;;;;;4998068;28;20686;-72
2023/09/29 08:26:57;;;;;;;10.70;5.38;;;23.30;99.90;;;;;;5048840;28;20500;-73
2023/09/29 08:29:22;;;;;;;11.48;5.70;;;23.00;99.90;;;;;;5032005;28;20052;-72
2023/09/29 08:31:48;;;;;;;11.88;5.63;;;23.50;99.90;;;;;;5032707;28;20041;-72
2023/09/29 08:34:14;;;;;;;12.80;6.00;;;23.40;99.90;;;;;;5032471;28;20045;-72
2023/09/29 08:36:39;;;;;;;15.50;6.05;;;23.10;99.90;;;;;;5032080;28;20048;-72
2023/09/29 08:39:06;;;;;;;15.52;6.28;;;23.00;99.90;;;;;;5031556;28;20034;-73
2023/09/29 08:41:34;;;;;;;13.75;6.70;;;23.50;99.90;;;;;;5032065;28;20492;-72
2023/09/29 08:44:03;;;;;;;13.30;6.63;;;23.00;99.90;;;;;;5032030;28;20097;-72
2023/09/29 08:46:29;;;;;;;16.67;8.55;;;23.20;99.90;;;;;;5032372;28;20115;-72
2023/09/29 08:48:55;;;;;;;18.25;7.88;;;22.80;99.90;;;;;;5015158;28;20386;-72
2023/09/29 08:51:21;;;;;;;16.38;7.53;;;23.60;99.90;;;;;;5032014;28;20041;-73
2023/09/29 08:53:50;;;;;;;17.10;7.53;;;22.70;99.90;;;;;;5012936;28;20087;-72
2023/09/29 08:56:16;;;;;;;16.50;8.45;;;23.10;99.90;;;;;;5024041;28;20048;-73
2023/09/29 08:58:42;;;;;;;15.10;8.68;;;23.50;99.90;;;;;;5023976;28;20066;-72
2023/09/29 09:01:11;;;;;;;16.42;8.85;;;23.10;99.90;;;;;;5020787;28;20493;-73
2023/09/29 09:03:37;;;;;;;22.98;9.30;;;23.50;99.90;;;;;;5003431;28;20385;-73
2023/09/29 09:06:20;;;;;;;22.80;10.40;;;23.80;99.90;;;;;;5016304;28;20038;-73
2023/09/29 09:08:46;;;;;;;23.63;11.02;;;23.80;99.90;;;;;;5011913;28;20048;-72
2023/09/29 09:11:12;;;;;;;20.08;9.88;;;23.90;99.90;;;;;;5010644;28;20037;-73
2023/09/29 09:13:38;;;;;;;20.42;10.05;;;23.90;99.90;;;;;;5012948;28;20115;-73
2023/09/29 09:16:04;;;;;;;23.42;9.65;;;23.70;99.90;;;;;;4995542;28;20149;-73
2023/09/29 09:18:30;;;;;;;21.17;9.02;;;23.90;99.90;;;;;;5012673;28;20576;-72
2023/09/29 09:20:57;;;;;;;18.20;7.57;;;23.90;99.90;;;;;;4995159;28;20042;-73
2023/09/29 09:23:23;;;;;;;16.75;8.48;;;23.90;99.90;;;;;;5036944;22;20056;-77
2023/09/29 09:25:49;;;;;;;12.40;6.85;;;24.20;99.90;;;;;;5011860;28;20034;-76
2023/09/29 09:28:19;;;;;;;12.13;6.05;;;23.90;99.90;;;;;;5013204;28;20046;-77
2023/09/29 09:30:46;;;;;;;13.65;5.47;;;24.30;99.90;;;;;;5011933;28;20498;-77
2023/09/29 09:33:21;;;;;;;10.10;5.35;;;24.40;99.90;;;;;;5012359;28;20049;-76
2023/09/29 09:35:50;;;;;;;8.60;4.40;;;24.20;99.90;;;;;;4996192;28;20080;-77
2023/09/29 09:38:16;;;;;;;9.48;3.75;;;24.40;99.90;;;;;;4979086;28;20486;-76
2023/09/29 09:40:44;;;;;;;8.90;3.47;;;24.20;99.90;;;;;;4979530;28;20049;-77
2023/09/29 09:43:11;;;;;;;7.95;3.80;;;23.80;99.90;;;;;;4995798;28;20087;-76
2023/09/29 09:45:43;;;;;;;5.90;3.00;;;24.30;99.90;;;;;;4979698;28;20045;-77
2023/09/29 09:48:10;;;;;;;8.68;3.75;;;24.30;99.90;;;;;;4979317;28;20042;-76
2023/09/29 09:50:38;;;;;;;8.20;4.15;;;24.10;99.90;;;;;;4995059;28;20474;-77
2023/09/29 09:53:07;;;;;;;7.88;3.65;;;23.70;99.90;;;;;;4979127;28;20128;-77
2023/09/29 09:55:50;;;;;;;10.75;4.18;;;24.30;99.90;;;;;;4995279;28;20501;-77
2023/09/29 09:58:17;;;;;;;8.02;3.28;;;24.00;99.90;;;;;;4995489;28;20487;-77
2023/09/29 10:00:46;;;;;;;9.32;3.92;;;24.10;99.90;;;;;;4978917;28;20124;-77
2023/09/29 10:03:14;;;;;;;8.35;2.85;;;24.20;99.90;;;;;;4979439;28;20069;-77
2023/09/29 10:05:41;;;;;;;7.93;3.55;;;23.80;99.90;;;;;;4979397;28;20505;-77
2023/09/29 10:08:10;;;;;;;5.45;3.03;;;24.00;99.90;;;;;;4979315;28;20041;-77
2023/09/29 10:10:41;;;;;;;5.32;3.13;;;23.90;99.90;;;;;;4995230;28;20049;-76
2023/09/29 10:13:12;;;;;;;7.05;3.30;;;23.90;99.90;;;;;;4996117;28;20049;-77
2023/09/29 10:15:42;;;;;;;8.90;3.33;;;23.80;99.90;;;;;;5012158;28;20057;-76
2023/09/29 10:18:18;;;;;;;10.63;3.63;;;24.00;99.90;;;;;;4994649;28;20038;-75
2023/09/29 10:20:48;;;;;;;10.73;4.18;;;24.10;99.90;;;;;;4978059;28;20045;-76
2023/09/29 10:23:14;;;;;;;10.50;4.13;;;23.80;99.90;;;;;;4995062;28;20042;-77
2023/09/29 10:25:44;;;;;;;11.45;4.35;;;23.60;99.90;;;;;;4994588;28;20034;-75
2023/09/29 10:28:12;;;;;;;10.32;5.43;;;23.50;99.90;;;;;;4978390;28;20038;-77
2023/09/29 10:30:39;;;;;;;13.20;4.20;;;23.80;99.90;;;;;;4994420;28;20046;-76
2023/09/29 10:33:11;;;;;;;12.43;4.45;;;23.40;99.90;;;;;;4978488;28;20405;-76
2023/09/29 10:35:46;;;;;;;10.48;3.88;;;23.60;99.90;;;;;;4994788;28;20049;-76
2023/09/29 10:38:24;;;;;;;11.50;4.45;;;24.00;99.90;;;;;;4994378;28;20505;-77
2023/09/29 10:40:50;;;;;;;7.82;4.13;;;23.70;99.90;;;;;;5010926;28;20473;-76
2023/09/29 10:43:23;;;;;;;7.63;4.25;;;24.10;99.90;;;;;;4994672;28;20042;-76
2023/09/29 10:45:50;;;;;;;7.50;3.90;;;23.70;99.90;;;;;;4994619;28;20034;-76
2023/09/29 10:48:23;;;;;;;10.10;4.78;;;23.90;99.90;;;;;;4978677;28;20408;-76
2023/09/29 10:50:49;;;;;;;;;;;23.90;99.90;;;;;;4994727;28;20034;-77
2023/09/29 10:53:16;;;;;;;11.43;4.97;;;23.60;99.90;;;;;;5010789;28;20352;-76
2023/09/29 10:55:47;;;;;;;7.88;4.18;;;24.30;99.90;;;;;;5010519;28;20042;-77
2023/09/29 10:58:14;;;;;;;10.88;5.00;;;23.40;99.90;;;;;;4994588;28;20145;-77
2023/09/29 11:00:42;;;;;;;9.60;4.65;;;23.90;99.90;;;;;;4994220;28;20042;-76
2023/09/29 11:03:11;;;;;;;6.82;4.00;;;24.00;99.90;;;;;;4994281;28;20033;-76
2023/09/29 11:05:48;;;;;;;7.78;4.30;;;24.20;99.90;;;;;;4994190;28;20042;-77
2023/09/29 11:08:17;;;;;;;9.48;5.03;;;23.60;99.90;;;;;;5010719;28;20104;-76
2023/09/29 11:10:53;;;;;;;11.05;5.32;;;23.30;99.90;;;;;;4994368;28;20045;-76
2023/09/29 11:13:19;;;;;;;9.30;4.32;;;23.60;99.90;;;;;;4994529;28;20049;-77
2023/09/29 11:15:44;;;;;;;9.63;4.72;;;23.70;99.90;;;;;;4994190;28;20647;-77
2023/09/29 11:18:11;;;;;;;8.98;5.20;;;24.00;99.90;;;;;;4994523;28;20151;-76
2023/09/29 11:20:37;;;;;;;7.95;4.82;;;24.20;99.90;;;;;;5010812;28;20091;-76
2023/09/29 11:23:08;;;;;;;12.13;5.55;;;24.10;99.90;;;;;;5010836;28;20516;-76
2023/09/29 11:25:50;;;;;;;7.47;4.93;;;24.30;99.90;;;;;;4995277;28;20042;-76
2023/09/29 11:28:17;;;;;;;9.02;5.13;;;23.80;99.90;;;;;;5003032;28;20052;-77
2023/09/29 11:30:43;;;;;;;9.88;5.60;;;23.80;99.90;;;;;;5003010;28;20037;-76
2023/09/29 11:33:13;;;;;;;9.70;5.15;;;24.00;99.90;;;;;;5003151;28;20041;-77
2023/09/29 11:35:45;;;;;;;10.40;5.05;;;24.00;99.90;;;;;;5004492;28;20081;-76
2023/09/29 11:38:20;;;;;;;9.55;5.00;;;24.30;99.90;;;;;;5005192;28;20518;-78
2023/09/29 11:40:51;;;;;;;11.85;5.20;;;24.30;99.90;;;;;;5003425;28;20106;-78
2023/09/29 11:43:18;;;;;;;11.65;5.47;;;24.20;99.90;;;;;;5003981;28;20037;-78
2023/09/29 11:45:44;;;;;;;9.95;5.93;;;24.50;99.90;;;;;;4986502;28;20069;-77
2023/09/29 11:48:10;;;;;;;11.57;5.97;;;24.10;99.90;;;;;;5020649;28;20092;-78
2023/09/29 11:50:36;;;;;;;10.75;6.13;;;24.40;99.90;;;;;;5003156;28;20504;-77
2023/09/29 11:53:06;;;;;;;9.52;5.68;;;24.00;99.90;;;;;;4986923;28;20037;-77
2023/09/29 11:55:34;;;;;;;8.57;5.25;;;24.10;99.90;;;;;;5002962;28;20045;-78
2023/09/29 11:58:00;;;;;;;10.95;3.50;;;24.30;99.90;;;;;;4996806;28;20049;-78
2023/09/29 12:00:26;;;;;;;9.25;4.18;;;23.40;99.90;;;;;;5026613;28;20034;-78
2023/09/29 12:02:51;;;;;;;2.42;1.27;;;23.70;99.90;;;;;;5010499;28;20034;-77
2023/09/29 12:05:17;;;;;;;3.88;1.48;;;22.90;99.90;;;;;;5013234;28;20050;-76
2023/09/29 12:07:43;;;;;;;7.78;3.47;;;23.00;99.90;;;;;;5013497;28;20405;-76
2023/09/29 12:10:09;;;;;;;3.78;3.10;;;22.40;99.90;;;;;;4996819;28;20568;-76
2023/09/29 12:12:34;;;;;;;4.80;2.67;;;22.00;99.90;;;;;;4997106;28;20073;-76
2023/09/29 12:15:00;;;;;;;6.72;3.60;;;22.00;99.90;;;;;;4996951;28;20076;-76
2023/09/29 12:17:26;;;;;;;7.88;3.45;;;22.70;99.90;;;;;;5012935;28;20497;-76
2023/09/29 12:19:51;;;;;;;6.00;2.85;;;22.00;99.90;;;;;;4996207;28;20044;-76
2023/09/29 12:22:18;;;;;;;4.65;2.50;;;22.30;99.90;;;;;;4996570;28;20049;-76
2023/09/29 12:24:44;;;;;;;3.63;2.28;;;22.20;99.90;;;;;;4980131;28;20498;-76
2023/09/29 12:27:10;;;;;;;8.73;2.00;;;22.10;99.90;;;;;;5013062;28;20034;-77
2023/09/29 12:29:36;;;;;;;4.40;1.50;;;22.20;99.90;;;;;;4996504;28;20532;-77
2023/09/29 12:32:02;;;;;;;7.45;2.25;;;22.00;99.90;;;;;;4980562;28;20474;-74
2023/09/29 12:34:32;;;;;;;7.40;2.90;;;21.90;99.90;;;;;;5012393;28;20052;-74
2023/09/29 12:36:59;;;;;;;6.20;3.03;;;22.20;99.90;;;;;;4996390;28;20045;-74
2023/09/29 12:39:25;;;;;;;7.13;3.90;;;21.70;99.90;;;;;;4994958;28;20042;-74
2023/09/29 12:41:51;;;;;;;5.68;2.42;;;22.30;99.90;;;;;;4996456;28;20060;-74